• Join FlightAware (Why Join?)
  • Login
  • US Flag 
12:18PM EDT


 

Airport Tracker/Info


-or-


 

Live Flight TrackerFlight Track Log ✈ DAL3974 ✈ 14-Apr-2013 ✈ KDTW - KMHT

Flight Track Log - Related Links

Times and Time Zones

All times are in EDT time to prevent confusion due to time zone crossing. See the DAL3974 flight status page for this flight to view local times or setup timezone preferences in your user account.

Time Position Orientation Groundspeed Altitude Reporting Facility
EDT Latitude Longitude Course Direction KTS MPH feet Rate Location/Type
07:53PM 42.2036 -83.3556 180° South 155 178 1,300  Level Cleveland Center
07:54PM 42.1536 -83.3561 180° South 181 208 3,900 2,220 Climbing Cleveland Center
07:55PM 42.0819 -83.3025 151° Southeast 240 276 6,900 2,160 Climbing Cleveland Center
07:56PM 42.0758 -83.2072 95° East 240 276 9,200 1,800 Climbing Cleveland Center
07:57PM 42.1181 -83.0914 64° Northeast 271 312 10,600 1,680 Climbing Cleveland Center
07:58PM 42.1689 -82.9617 62° Northeast 322 371 12,600 1,980 Climbing Cleveland Center
07:59PM 42.2194 -82.8289 63° Northeast 364 419 14,600 1,980 Climbing Cleveland Center
08:00PM 42.2739 -82.6961 61° Northeast 390 449 16,600 1,920 Climbing Cleveland Center
08:01PM 42.3264 -82.5603 62° Northeast 400 460 18,500 1,680 Climbing Cleveland Center
08:02PM 42.3664 -82.4125 70° East 405 466 20,000 1,320 Climbing Cleveland Center
08:03PM 42.3606 -82.2578 93° East 400 460 21,200 1,200 Climbing Cleveland Center
08:04PM 42.3525 -82.0778 93° East 413 475 22,400 1,200 Climbing Cleveland Center
08:05PM 42.3461 -81.9119 93° East 431 496 23,700 1,200 Climbing Cleveland Center
08:06PM 42.3375 -81.7461 94° East 440 506 24,800 1,080 Climbing Cleveland Center
08:07PM 42.3286 -81.5803 94° East 447 514 25,900 1,080 Climbing Cleveland Center
08:08PM 42.3217 -81.4144 93° East 442 509 27,000 540 Climbing Cleveland Center
08:09PM 42.3125 -81.2431 94° East 442 509 27,000  Level Cleveland Center
08:10PM 42.3028 -81.0689 94° East 455 524 27,000  Level Cleveland Center
08:11PM 42.2992 -80.9117 92° East 465 535 27,000  Level Cleveland Center
08:12PM 42.2872 -80.7347 95° East 470 541 27,000  Level Cleveland Center
08:13PM 42.2789 -80.5550 94° East 475 547 27,000  Level Cleveland Center
08:14PM 42.2683 -80.3783 95° East 475 547 27,000  Level Cleveland Center
08:15PM 42.2575 -80.2017 95° East 475 547 27,000  Level Cleveland Center
08:16PM 42.2461 -80.0081 94° East 468 539 27,000  Level Cleveland Center
08:17PM 42.2350 -79.8514 95° East 468 539 27,000  Level Cleveland Center
08:18PM 42.2253 -79.6775 94° East 468 539 27,000  Level Cleveland Center
08:19PM 42.2133 -79.5011 95° East 463 533 27,000  Level Cleveland Center
08:20PM 42.2011 -79.3275 95° East 463 533 27,000  Level Cleveland Center
08:21PM 42.1908 -79.1456 94° East 463 533 27,000  Level Cleveland Center
08:22PM 42.2072 -78.9742 83° East 463 533 27,000  Level Cleveland Center
08:23PM 42.2356 -78.7772 79° East 468 539 27,000  Level Cleveland Center
08:24PM 42.2556 -78.6025 81° East 468 539 27,000  Level Cleveland Center
08:25PM 42.2775 -78.4278 80° East 468 539 27,000  Level Cleveland Center
08:26PM 42.2989 -78.2475 81° East 468 539 27,000  Level Cleveland Center
08:27PM 42.3203 -78.0697 81° East 468 539 27,000  Level Cleveland Center
08:28PM 42.3414 -77.8919 81° East 468 539 27,000  Level Cleveland Center
08:29PM 42.3603 -77.7308 81° East 476 548 27,000  Level Cleveland Center
08:30PM 42.3808 -77.5500 81° East 476 548 27,000  Level Cleveland Center
08:32PM 42.4147 -77.2583 81° East 490 564 27,000  Level Boston Center
08:33PM 42.4350 -77.0769 81° East 490 564 27,000  Level Boston Center
08:34PM 42.4547 -76.8983 81° East 485 558 27,000  Level Boston Center
08:35PM 42.4742 -76.7167 82° East 480 552 27,000  Level Boston Center
08:36PM 42.4933 -76.5347 82° East 480 552 27,000  Level Boston Center
08:37PM 42.5122 -76.3500 82° East 480 552 27,000  Level Boston Center
08:38PM 42.5308 -76.1681 82° East 480 552 27,000  Level Boston Center
08:39PM 42.5514 -75.9858 81° East 480 552 27,000  Level Boston Center
08:40PM 42.5675 -75.8008 83° East 480 552 27,000  Level Boston Center
08:41PM 42.5853 -75.6128 83° East 486 559 27,000  Level Boston Center
08:42PM 42.6028 -75.4275 83° East 486 559 27,000  Level Boston Center
08:43PM 42.6222 -75.2450 82° East 491 565 27,000  Level Boston Center
08:44PM 42.6394 -75.0397 83° East 497 572 27,000  Level Boston Center
08:45PM 42.6561 -74.8539 83° East 497 572 27,000  Level Boston Center
08:46PM 42.6725 -74.6681 83° East 497 572 27,000 -60 Level Boston Center
08:47PM 42.6906 -74.4767 83° East 497 572 26,900 -840 Descending Boston Center
08:48PM 42.7064 -74.2908 83° East 502 578 25,400 -1,560 Descending Boston Center
08:49PM 42.7217 -74.1019 84° East 502 578 23,900 -1,500 Descending Boston Center
08:50PM 42.7389 -73.9186 83° East 496 571 22,400 -1,560 Descending Boston Center
08:51PM 42.7514 -73.7378 85° East 490 564 20,900 -1,500 Descending Boston Center
08:52PM 42.7597 -73.5600 86° East 479 551 19,500 -960 Descending Boston Center
08:53PM 42.7611 -73.3847 89° East 479 551 19,000 -300 Descending Boston Center
08:54PM 42.7667 -73.2264 87° East 459 528 19,000  Level Boston Center
08:55PM 42.7719 -73.0397 88° East 454 522 19,000  Level Boston Center
08:56PM 42.7811 -72.8700 86° East 454 522 19,000  Level Boston Center
08:57PM 42.7836 -72.6975 89° East 454 522 19,000 -1,200 Level Boston Center
08:58PM 42.7881 -72.5333 88° East 447 514 16,600 -2,340 Descending Boston Center
08:59PM 42.7942 -72.3778 87° East 432 497 14,300 -2,100 Descending Boston Center
09:00PM 42.8003 -72.2561 86° East 387 445 12,500 -2,040 Descending Boston Center
09:01PM 42.8208 -72.1231 78° East 337 388 10,400 -1,800 Descending Boston Center
09:02PM 42.8103 -72.0183 98° East 303 349 8,900 -1,620 Descending Boston Center
09:03PM 42.7992 -71.9025 97° East 290 334 7,200 -1,680 Descending Boston Center
09:04PM 42.7906 -71.8119 97° East 270 311 5,500 -1,140 Descending Boston Center
09:05PM 42.7772 -71.7075 100° East 259 298 5,000 -660 Descending Boston Center
09:06PM 42.7664 -71.6256 100° East 254 292 4,200 -1,020 Descending Boston Center
09:07PM 42.7511 -71.5325 103° East 234 269 3,000 -600 Descending Boston Center
09:08PM 42.7589 -71.4644 81° East 210 242 3,000 -120 Level Boston Center
09:09PM 42.7811 -71.3822 70° East 204 235 2,800 -240 Descending Boston Center
09:10PM 42.8206 -71.3700 13° North 162 186 2,600 -600 Descending Boston Center
09:11PM 42.8561 -71.3922 335° Northwest 129 148 1,700 -780 Descending Boston Center
09:12PM 42.8833 -71.4086 336° Northwest 122 140 1,100 -720 Descending Boston Center
09:13PM 42.9169 -71.4281 337° Northwest 117 135 400 -780 Descending Boston Center